sensor_id;sensor_type;location;lat;lon;timestamp;P1;durP1;ratioP1;P2;durP2;ratioP2
79652;SDS011;69122;41.698;21.754;2024-01-07T00:01:54;12.73;;;6.30;;
79652;SDS011;69122;41.698;21.754;2024-01-07T00:13:28;4.00;;;1.80;;
79652;SDS011;69122;41.698;21.754;2024-01-07T00:31:03;5.50;;;3.40;;
79652;SDS011;69122;41.698;21.754;2024-01-07T00:33:30;6.30;;;3.70;;
79652;SDS011;69122;41.698;21.754;2024-01-07T00:35:57;7.03;;;3.40;;
79652;SDS011;69122;41.698;21.754;2024-01-07T00:38:25;7.07;;;3.70;;
79652;SDS011;69122;41.698;21.754;2024-01-07T00:40:52;7.57;;;3.95;;
79652;SDS011;69122;41.698;21.754;2024-01-07T00:43:18;9.82;;;4.30;;
79652;SDS011;69122;41.698;21.754;2024-01-07T00:45:44;13.40;;;6.95;;
79652;SDS011;69122;41.698;21.754;2024-01-07T00:48:10;8.63;;;3.55;;
79652;SDS011;69122;41.698;21.754;2024-01-07T00:50:37;5.65;;;3.40;;
79652;SDS011;69122;41.698;21.754;2024-01-07T00:53:03;5.18;;;2.63;;
79652;SDS011;69122;41.698;21.754;2024-01-07T00:55:29;3.47;;;2.20;;
79652;SDS011;69122;41.698;21.754;2024-01-07T00:57:55;3.63;;;1.70;;
79652;SDS011;69122;41.698;21.754;2024-01-07T01:00:24;3.15;;;1.73;;
79652;SDS011;69122;41.698;21.754;2024-01-07T01:02:51;3.30;;;2.10;;
79652;SDS011;69122;41.698;21.754;2024-01-07T01:05:17;9.27;;;4.05;;
79652;SDS011;69122;41.698;21.754;2024-01-07T01:07:44;6.57;;;3.90;;
79652;SDS011;69122;41.698;21.754;2024-01-07T01:10:12;4.95;;;2.47;;
79652;SDS011;69122;41.698;21.754;2024-01-07T01:12:44;4.72;;;2.25;;
79652;SDS011;69122;41.698;21.754;2024-01-07T01:24:49;3.65;;;2.03;;
79652;SDS011;69122;41.698;21.754;2024-01-07T01:27:25;3.55;;;1.52;;
79652;SDS011;69122;41.698;21.754;2024-01-07T01:30:00;4.30;;;1.98;;
79652;SDS011;69122;41.698;21.754;2024-01-07T01:32:53;5.15;;;2.08;;
79652;SDS011;69122;41.698;21.754;2024-01-07T01:38:55;3.15;;;1.80;;
79652;SDS011;69122;41.698;21.754;2024-01-07T01:42:03;26.63;;;11.65;;
79652;SDS011;69122;41.698;21.754;2024-01-07T01:44:50;8.30;;;3.45;;
79652;SDS011;69122;41.698;21.754;2024-01-07T01:52:36;3.85;;;2.15;;
79652;SDS011;69122;41.698;21.754;2024-01-07T01:55:18;8.18;;;3.58;;
79652;SDS011;69122;41.698;21.754;2024-01-07T02:07:07;6.18;;;2.55;;
79652;SDS011;69122;41.698;21.754;2024-01-07T02:26:24;5.05;;;2.55;;
79652;SDS011;69122;41.698;21.754;2024-01-07T02:28:57;4.60;;;2.60;;
79652;SDS011;69122;41.698;21.754;2024-01-07T02:49:10;5.25;;;3.60;;
79652;SDS011;69122;41.698;21.754;2024-01-07T08:49:42;60.67;;;31.95;;
79652;SDS011;69122;41.698;21.754;2024-01-07T10:31:05;8.80;;;7.05;;
79652;SDS011;69122;41.698;21.754;2024-01-07T10:33:39;7.55;;;5.30;;
79652;SDS011;69122;41.698;21.754;2024-01-07T10:36:06;12.27;;;10.48;;
79652;SDS011;69122;41.698;21.754;2024-01-07T10:38:32;7.15;;;4.15;;
79652;SDS011;69122;41.698;21.754;2024-01-07T11:14:59;7.97;;;6.05;;
79652;SDS011;69122;41.698;21.754;2024-01-07T13:32:48;6.82;;;4.03;;
79652;SDS011;69122;41.698;21.754;2024-01-07T13:35:30;5.30;;;4.80;;
79652;SDS011;69122;41.698;21.754;2024-01-07T13:38:09;3.83;;;2.20;;
79652;SDS011;69122;41.698;21.754;2024-01-07T13:43:25;4.57;;;2.80;;
79652;SDS011;69122;41.698;21.754;2024-01-07T13:46:00;4.20;;;3.03;;
79652;SDS011;69122;41.698;21.754;2024-01-07T13:48:38;40.92;;;18.70;;
79652;SDS011;69122;41.698;21.754;2024-01-07T13:51:10;17.08;;;8.35;;
79652;SDS011;69122;41.698;21.754;2024-01-07T13:53:47;57.00;;;22.65;;
79652;SDS011;69122;41.698;21.754;2024-01-07T13:56:31;14.32;;;6.45;;
79652;SDS011;69122;41.698;21.754;2024-01-07T13:59:01;152.77;;;61.78;;
79652;SDS011;69122;41.698;21.754;2024-01-07T14:01:36;28.13;;;12.68;;
79652;SDS011;69122;41.698;21.754;2024-01-07T14:04:06;36.28;;;21.10;;
79652;SDS011;69122;41.698;21.754;2024-01-07T14:06:42;64.43;;;32.85;;
79652;SDS011;69122;41.698;21.754;2024-01-07T14:09:17;83.15;;;41.67;;
79652;SDS011;69122;41.698;21.754;2024-01-07T14:11:54;6.20;;;3.78;;
79652;SDS011;69122;41.698;21.754;2024-01-07T14:14:30;108.38;;;46.58;;
79652;SDS011;69122;41.698;21.754;2024-01-07T14:16:59;63.85;;;28.17;;
79652;SDS011;69122;41.698;21.754;2024-01-07T14:19:29;42.92;;;21.52;;
79652;SDS011;69122;41.698;21.754;2024-01-07T14:21:58;10.15;;;6.57;;
79652;SDS011;69122;41.698;21.754;2024-01-07T14:24:28;15.57;;;7.90;;
79652;SDS011;69122;41.698;21.754;2024-01-07T14:27:07;8.18;;;5.13;;
79652;SDS011;69122;41.698;21.754;2024-01-07T14:29:36;13.48;;;5.88;;
79652;SDS011;69122;41.698;21.754;2024-01-07T16:56:56;65.28;;;38.47;;
79652;SDS011;69122;41.698;21.754;2024-01-07T17:04:36;100.65;;;54.33;;
79652;SDS011;69122;41.698;21.754;2024-01-07T17:16:39;124.63;;;69.57;;
79652;SDS011;69122;41.698;21.754;2024-01-07T17:22:25;86.32;;;53.95;;
79652;SDS011;69122;41.698;21.754;2024-01-07T17:25:00;81.93;;;51.33;;
79652;SDS011;69122;41.698;21.754;2024-01-07T17:27:38;112.88;;;65.85;;
79652;SDS011;69122;41.698;21.754;2024-01-07T17:33:35;83.97;;;47.65;;
79652;SDS011;69122;41.698;21.754;2024-01-07T17:36:27;88.45;;;49.60;;
